Time;durP1;ratioP1;P1;durP2;ratioP2;P2;SDS_P1;SDS_P2;PMS_P1;PMS_P2;Temp;Humidity;BMP_temperature;BMP_pressure;BME280_temperature;BME280_humidity;BME280_pressure;Samples;Min_cycle;Max_cycle;Signal;HPM_P1;HPM_P2
2024/02/15 09:13:37;;;;;;;3.53;2.13;;;;;;;12.09;100.00;99213.03;5170091;27;20511;-89
2024/02/15 09:16:05;;;;;;;3.87;2.40;;;;;;;12.68;100.00;99216.31;5149960;27;40026;-90
2024/02/15 09:18:33;;;;;;;3.17;2.17;;;;;;;13.21;100.00;99205.66;5135227;27;40999;-90
2024/02/15 09:21:01;;;;;;;2.57;2.30;;;;;;;13.67;100.00;99181.19;5151653;27;43383;-90
2024/02/15 09:23:28;;;;;;;3.77;2.20;;;;;;;14.48;100.00;99226.03;5135851;27;41248;-90
2024/02/15 09:25:56;;;;;;;3.50;1.77;;;;;;;14.84;100.00;99222.47;5135158;27;40058;-90
2024/02/15 09:28:23;;;;;;;4.00;2.10;;;;;;;15.23;100.00;99211.50;5134641;27;41545;-91
2024/02/15 09:30:52;;;;;;;3.50;2.30;;;;;;;15.78;100.00;99231.31;5135459;27;43086;-91
2024/02/15 09:33:20;;;;;;;2.80;2.00;;;;;;;16.26;100.00;99231.09;5165879;27;42086;-92
2024/02/15 09:35:48;;;;;;;2.70;2.10;;;;;;;16.72;100.00;99222.91;5135244;27;40230;-92
2024/02/15 09:38:16;;;;;;;2.30;1.93;;;;;;;16.98;98.50;99212.72;5135122;27;41181;-91
2024/02/15 09:40:44;;;;;;;3.47;1.67;;;;;;;17.48;93.87;99232.56;5131235;27;42997;-92
2024/02/15 09:43:13;;;;;;;2.87;1.20;;;;;;;17.66;91.98;99224.84;5139259;27;42421;-92
2024/02/15 09:45:41;;;;;;;2.07;1.10;;;;;;;18.02;90.25;99240.44;5132016;27;39074;-92
2024/02/15 09:48:13;;;;;;;1.97;1.53;;;;;;;18.20;83.86;99251.34;5114354;27;41454;-90
2024/02/15 09:50:43;;;;;;;2.33;1.30;;;;;;;18.35;80.95;99251.84;5146598;27;43307;-90
2024/02/15 09:53:10;;;;;;;2.00;1.20;;;;;;;18.40;80.05;99228.16;5132178;27;42899;-89
2024/02/15 09:55:41;;;;;;;2.83;1.20;;;;;;;18.70;80.68;99236.16;5115303;27;38958;-91
2024/02/15 09:58:09;;;;;;;1.90;1.10;;;;;;;18.84;77.10;99241.16;5131509;27;42172;-91
2024/02/15 10:00:37;;;;;;;1.40;1.07;;;;;;;18.97;77.00;99243.56;5114606;27;43172;-90
2024/02/15 10:03:07;;;;;;;1.53;1.27;;;;;;;18.96;71.30;99264.19;5141839;27;42647;-89
2024/02/15 10:05:39;;;;;;;3.87;1.30;;;;;;;19.09;72.28;99255.03;5134893;27;38754;-90
2024/02/15 10:08:11;;;;;;;1.37;0.90;;;;;;;19.19;72.19;99253.19;5147338;27;40669;-90
2024/02/15 10:10:38;;;;;;;1.77;1.13;;;;;;;19.22;72.23;99237.66;5122839;27;43037;-91
2024/02/15 10:13:06;;;;;;;1.70;1.43;;;;;;;19.25;68.77;99258.00;5126281;27;41719;-92
2024/02/15 10:15:35;;;;;;;1.63;1.10;;;;;;;19.16;67.01;99254.34;5120750;27;38724;-87
2024/02/15 10:18:05;;;;;;;2.27;1.10;;;;;;;19.19;66.90;99266.63;5123722;27;40762;-88
2024/02/15 10:20:34;;;;;;;3.37;1.30;;;;;;;19.17;65.38;99263.22;5117249;27;42246;-84
2024/02/15 10:23:17;;;;;;;1.60;1.50;;;;;;;19.13;65.91;99241.19;5126535;27;41502;-84
2024/02/15 10:25:45;;;;;;;2.10;1.10;;;;;;;19.47;67.52;99248.81;5118677;27;40451;-88
2024/02/15 10:28:15;;;;;;;4.27;1.03;;;;;;;19.67;65.54;99256.72;5103447;27;41007;-85
2024/02/15 10:30:45;;;;;;;1.23;0.90;;;;;;;19.92;65.32;99233.75;5117517;27;42255;-88
2024/02/15 10:33:20;;;;;;;1.83;1.00;;;;;;;20.54;63.35;99237.66;5119720;27;41958;-87
2024/02/15 10:35:48;;;;;;;1.57;1.10;;;;;;;20.94;57.87;99248.03;5106851;27;39007;-88
2024/02/15 10:38:16;;;;;;;1.30;1.03;;;;;;;21.60;57.50;99271.97;5120610;27;40593;-88
2024/02/15 10:40:45;;;;;;;1.40;1.00;;;;;;;22.12;56.88;99250.47;5137175;27;42926;-87
2024/02/15 10:43:15;;;;;;;1.70;1.07;;;;;;;22.54;56.74;99267.53;5111965;27;41293;-88
2024/02/15 10:45:43;;;;;;;0.73;0.73;;;;;;;22.87;54.01;99268.53;5119957;27;39141;-89
2024/02/15 10:48:12;;;;;;;2.20;1.43;;;;;;;22.82;51.28;99272.75;5100107;27;42190;-85
2024/02/15 10:50:41;;;;;;;2.90;1.20;;;;;;;22.86;51.88;99257.91;5099832;27;42214;-88
2024/02/15 10:53:22;;;;;;;2.60;1.23;;;;;;;23.28;51.55;99266.78;5106697;27;42660;-87
2024/02/15 10:55:58;;;;;;;2.40;1.30;;;;;;;23.72;50.13;99279.19;5112362;27;39392;-88
2024/02/15 10:58:35;;;;;;;1.30;1.00;;;;;;;23.95;49.71;99263.94;5124498;27;42198;-85
2024/02/15 11:01:08;;;;;;;1.67;1.20;;;;;;;24.42;48.30;99261.34;5105266;27;42023;-87
2024/02/15 11:03:37;;;;;;;1.80;1.10;;;;;;;26.08;46.98;99264.38;5137469;27;43401;-87
2024/02/15 11:06:07;;;;;;;1.35;1.20;;;;;;;27.03;42.31;99299.81;5119341;27;40531;-89
2024/02/15 11:08:36;;;;;;;2.65;1.23;;;;;;;28.00;40.30;99283.03;5099648;27;40719;-89
2024/02/15 11:11:05;;;;;;;1.77;1.05;;;;;;;28.51;40.36;99302.72;5103673;27;42504;-85
2024/02/15 11:13:33;;;;;;;2.85;1.25;;;;;;;28.63;38.59;99309.28;5138413;27;43083;-89
2024/02/15 11:16:01;;;;;;;2.63;1.30;;;;;;;29.87;37.34;99307.25;5099739;27;39075;-90
2024/02/15 11:18:48;;;;;;;2.15;1.00;;;;;;;30.60;36.61;99313.56;5117265;27;41816;-88
2024/02/15 11:21:17;;;;;;;2.42;1.50;;;;;;;31.90;34.92;99312.38;5117647;27;42861;-87
2024/02/15 11:23:45;;;;;;;2.00;1.30;;;;;;;32.42;34.53;99292.75;5120013;27;42386;-86
2024/02/15 11:26:50;;;;;;;2.33;0.95;;;;;;;33.31;34.42;99298.75;5116337;27;39650;-89
2024/02/15 11:29:51;;;;;;;2.90;1.13;;;;;;;33.91;30.10;99317.94;5139570;27;42531;-87
2024/02/15 11:32:39;;;;;;;1.00;0.90;;;;;;;33.45;31.99;99297.50;5099701;28;41890;-91
2024/02/15 11:35:11;;;;;;;1.70;0.95;;;;;;;32.66;32.84;99254.53;5133569;27;43017;-91
2024/02/15 11:37:58;;;;;;;1.10;0.82;;;;;;;32.32;33.65;99261.44;5139284;27;39953;-91
2024/02/15 11:40:28;;;;;;;1.02;0.60;;;;;;;32.94;32.52;99274.06;5116746;27;41761;-93
2024/02/15 11:42:59;;;;;;;2.08;0.88;;;;;;;34.07;30.57;99267.78;5100028;27;42260;-92
2024/02/15 11:45:45;;;;;;;1.17;0.88;;;;;;;34.95;29.19;99253.88;5117519;27;41202;-93
2024/02/15 11:48:17;;;;;;;2.03;0.77;;;;;;;36.11;27.52;99287.47;5099107;27;40548;-93
2024/02/15 11:50:49;;;;;;;1.98;0.98;;;;;;;36.66;25.62;99282.84;5103619;27;40483;-94
2024/02/15 11:53:39;;;;;;;1.63;0.98;;;;;;;36.27;26.70;99239.78;5129009;27;42166;-93
2024/02/15 11:56:10;;;;;;;2.08;0.88;;;;;;;36.28;26.98;99255.22;5118357;27;41467;-92
2024/02/15 11:58:51;;;;;;;2.22;0.85;;;;;;;35.95;26.83;99231.25;5125353;27;40464;-94
2024/02/15 12:18:54;;;;;;;2.47;0.80;;;;;;;37.53;22.42;99223.13;5115949;27;41005;-93
2024/02/15 12:22:21;;;;;;;0.80;0.57;;;;;;;37.88;22.60;99262.19;5115489;27;41564;-94
2024/02/15 12:24:56;;;;;;;0.82;0.40;;;;;;;37.49;23.38;99238.56;5116067;27;42295;-94
2024/02/15 12:27:53;;;;;;;1.05;0.68;;;;;;;37.64;23.90;99244.25;5099282;27;41942;-94
2024/02/15 12:30:57;;;;;;;0.93;0.50;;;;;;;37.25;22.99;99219.53;5099553;27;41455;-95
2024/02/15 12:33:27;;;;;;;1.55;0.60;;;;;;;36.29;23.71;99237.59;5103034;27;39224;-93
2024/02/15 12:36:10;;;;;;;1.20;0.68;;;;;;;35.44;24.94;99235.03;5115549;27;40760;-94
2024/02/15 12:38:38;;;;;;;0.77;0.60;;;;;;;34.91;24.75;99183.88;5098772;27;42314;-93
2024/02/15 12:41:19;;;;;;;1.27;0.73;;;;;;;33.95;25.31;99220.22;5098740;27;42795;-94
2024/02/15 12:43:48;;;;;;;1.40;0.68;;;;;;;33.96;24.98;99216.41;5137955;27;39603;-92
2024/02/15 12:46:21;;;;;;;1.48;0.68;;;;;;;33.54;25.67;99153.25;5121655;27;42942;-91
2024/02/15 12:48:49;;;;;;;2.00;0.60;;;;;;;34.43;25.31;99206.25;5139537;27;42115;-91
2024/02/15 12:51:18;;;;;;;1.33;0.70;;;;;;;34.05;25.55;99154.47;5138173;27;42238;-92
2024/02/15 12:53:47;;;;;;;0.95;0.63;;;;;;;33.70;25.53;99151.72;5138300;27;40252;-92
2024/02/15 13:00:32;;;;;;;1.67;0.80;;;;;;;33.42;26.77;99144.16;5065733;27;44426;-92
2024/02/15 13:06:09;;;;;;;1.05;0.60;;;;;;;32.26;26.62;99172.75;5072753;28;38967;-90
2024/02/15 13:08:48;;;;;;;0.45;0.40;;;;;;;31.04;27.65;99185.03;5073478;28;43033;-92
2024/02/15 13:11:16;;;;;;;2.20;0.70;;;;;;;30.26;28.79;99172.56;5074382;28;43099;-93
2024/02/15 13:13:58;;;;;;;0.93;0.70;;;;;;;29.44;30.48;99130.19;5072972;28;41079;-93
2024/02/15 13:16:28;;;;;;;2.03;0.70;;;;;;;29.09;30.85;99096.81;5073434;28;41490;-94
2024/02/15 13:18:58;;;;;;;1.27;0.80;;;;;;;29.10;30.65;99133.09;5074312;28;41224;-94
2024/02/15 13:21:30;;;;;;;1.40;0.80;;;;;;;29.01;30.68;99137.91;5074026;28;42963;-92
2024/02/15 13:23:58;;;;;;;1.43;0.53;;;;;;;29.16;30.26;99115.91;5073953;28;42381;-91
2024/02/15 13:26:42;;;;;;;0.83;0.70;;;;;;;29.31;30.44;99127.44;5057779;28;38791;-91
2024/02/15 13:29:11;;;;;;;0.57;0.50;;;;;;;29.53;29.95;99139.88;5047998;28;41676;-94
2024/02/15 13:31:45;;;;;;;1.47;0.57;;;;;;;29.02;30.57;99095.97;5018269;28;41843;-93
2024/02/15 13:34:16;;;;;;;1.50;0.80;;;;;;;28.66;30.60;99112.66;5050840;28;42573;-94
2024/02/15 13:37:01;;;;;;;0.70;0.60;;;;;;;28.12;31.30;99099.84;5034530;28;39995;-93
2024/02/15 13:39:32;;;;;;;1.53;0.67;;;;;;;27.70;32.08;99127.22;5034610;28;40865;-93
2024/02/15 13:42:01;;;;;;;0.90;0.50;;;;;;;26.83;32.47;99065.78;5018500;28;42076;-94
2024/02/15 13:44:30;;;;;;;1.27;0.60;;;;;;;26.57;33.09;99092.72;5034561;28;42079;-94
2024/02/15 13:47:00;;;;;;;0.87;0.60;;;;;;;25.74;33.58;99046.94;5034734;28;40504;-95
2024/02/15 13:49:30;;;;;;;1.53;0.80;;;;;;;25.64;34.83;99095.22;5018142;28;41075;-93
2024/02/15 13:52:02;;;;;;;1.03;0.53;;;;;;;25.03;35.14;99049.19;5034338;28;43171;-93
2024/02/15 13:54:31;;;;;;;1.60;0.70;;;;;;;24.74;35.94;99029.25;5035005;28;41515;-93
2024/02/15 13:57:02;;;;;;;1.67;0.70;;;;;;;24.87;36.47;99056.56;5017839;28;38783;-93
2024/02/15 13:59:30;;;;;;;1.13;0.50;;;;;;;24.46;36.14;99019.00;5037786;28;41647;-92
2024/02/15 14:01:58;;;;;;;1.27;0.60;;;;;;;24.59;36.56;99051.72;5021692;28;42818;-93
2024/02/15 14:04:28;;;;;;;2.40;0.77;;;;;;;24.67;37.12;99038.13;5021328;28;41381;-92
2024/02/15 14:06:57;;;;;;;3.73;1.27;;;;;;;24.44;37.40;98979.56;5038776;28;39188;-93
2024/02/15 14:09:28;;;;;;;1.83;0.70;;;;;;;24.69;36.87;99027.94;5020930;28;40845;-93
2024/02/15 14:11:58;;;;;;;2.17;0.90;;;;;;;24.23;37.82;98974.84;5037720;28;42119;-92
2024/02/15 14:14:27;;;;;;;1.23;0.67;;;;;;;24.23;37.64;99023.56;5037566;28;43218;-92
2024/02/15 14:16:54;;;;;;;0.60;0.57;;;;;;;23.59;37.99;98972.28;5054398;28;40343;-93
2024/02/15 14:19:26;;;;;;;1.97;0.63;;;;;;;23.57;38.83;99011.34;5037205;28;42110;-95
2024/02/15 14:21:54;;;;;;;1.27;0.50;;;;;;;23.36;39.33;99019.16;5036964;28;43661;-92
2024/02/15 14:24:22;;;;;;;1.87;0.63;;;;;;;22.90;39.40;98986.47;5036699;28;41098;-92
2024/02/15 14:26:50;;;;;;;0.90;0.70;;;;;;;22.53;39.85;98974.31;5020141;28;40667;-91
2024/02/15 14:29:22;;;;;;;2.80;0.53;;;;;;;22.30;40.55;98967.03;5053466;28;42968;-92
2024/02/15 14:34:40;;;;;;;1.47;0.77;;;;;;;22.13;41.30;99001.28;5036657;28;41672;-93
2024/02/15 14:37:09;;;;;;;2.13;0.63;;;;;;;21.79;41.48;98969.78;5036798;28;40219;-94
2024/02/15 14:39:40;;;;;;;1.67;0.67;;;;;;;21.36;41.59;98932.25;5036768;28;42446;-93
2024/02/15 14:42:08;;;;;;;2.30;0.57;;;;;;;21.49;42.10;98995.47;5020188;28;44514;-90
2024/02/15 14:44:38;;;;;;;1.30;0.70;;;;;;;21.15;42.43;98965.78;5019801;28;41111;-91
2024/02/15 14:47:07;;;;;;;1.37;0.70;;;;;;;21.23;42.76;99002.75;5053333;28;40201;-90
2024/02/15 14:49:34;;;;;;;1.47;0.60;;;;;;;21.02;43.13;98995.00;5036412;28;40698;-92
2024/02/15 14:52:04;;;;;;;0.97;0.60;;;;;;;20.70;43.46;98968.69;5036277;28;42969;-91
2024/02/15 14:54:36;;;;;;;1.73;0.63;;;;;;;20.64;44.07;98972.03;5052827;28;42633;-91
2024/02/15 14:57:04;;;;;;;0.70;0.70;;;;;;;20.54;44.36;98970.41;5036921;28;39172;-91
2024/02/15 14:59:34;;;;;;;1.47;0.50;;;;;;;20.19;44.37;98922.84;5053018;28;42549;-91
2024/02/15 15:02:08;;;;;;;0.80;0.70;;;;;;;20.40;44.75;98963.75;5020234;28;42220;-91
2024/02/15 15:04:57;;;;;;;1.57;0.87;;;;;;;20.37;45.75;98962.22;5034474;28;43198;-91
2024/02/15 15:13:22;;;;;;;2.40;1.20;;;;;;;20.07;46.04;98976.03;5035582;28;41925;-91
2024/02/15 15:17:44;;;;;;;0.80;0.80;;;;;;;19.92;46.52;98973.00;5053701;28;44035;-91
2024/02/15 15:20:16;;;;;;;1.33;1.00;;;;;;;19.67;47.02;98950.41;5019587;28;39677;-90
2024/02/15 15:22:44;;;;;;;1.17;0.90;;;;;;;19.48;47.34;98933.53;5036372;28;44304;-91
2024/02/15 15:25:45;;;;;;;1.30;1.07;;;;;;;19.55;47.30;98959.66;5036762;28;42466;-90
2024/02/15 15:29:06;;;;;;;0.97;0.80;;;;;;;19.00;48.25;98879.09;5055007;28;43046;-90
2024/02/15 15:31:47;;;;;;;1.20;1.00;;;;;;;19.18;48.92;98921.25;4958821;28;40780;-91
2024/02/15 15:34:19;;;;;;;0.97;0.70;;;;;;;18.85;49.06;98887.78;4973182;28;41476;-91
2024/02/15 15:36:57;;;;;;;0.80;0.60;;;;;;;19.00;49.37;98918.50;4970956;28;44074;-91
2024/02/15 15:39:28;;;;;;;1.77;0.80;;;;;;;18.97;49.54;98925.00;4973777;28;41724;-90
2024/02/15 15:41:56;;;;;;;1.13;0.80;;;;;;;18.75;49.81;98913.78;5029948;28;40181;-90
2024/02/15 15:44:27;;;;;;;1.17;0.90;;;;;;;18.54;49.66;98904.09;5026213;28;41448;-90
2024/02/15 15:46:54;;;;;;;1.13;0.80;;;;;;;18.60;50.19;98933.03;5042374;28;42801;-90
2024/02/15 15:49:27;;;;;;;0.80;0.80;;;;;;;18.30;50.11;98904.53;5043902;28;42738;-90
2024/02/15 15:51:56;;;;;;;1.13;1.03;;;;;;;18.23;50.50;98913.31;5027697;28;39334;-88
2024/02/15 15:54:23;;;;;;;2.00;0.73;;;;;;;18.17;50.70;98919.25;5043154;28;42209;-89
2024/02/15 15:56:51;;;;;;;1.80;1.00;;;;;;;17.83;50.76;98882.13;5027552;28;42258;-90
2024/02/15 15:59:19;;;;;;;0.93;0.80;;;;;;;17.94;51.43;98915.97;5052440;28;42723;-90
2024/02/15 16:01:50;;;;;;;1.93;1.10;;;;;;;17.57;51.38;98884.47;5052640;28;40235;-89
2024/02/15 16:04:18;;;;;;;1.80;1.20;;;;;;;17.55;51.71;98894.50;5051996;28;42112;-90
2024/02/15 16:06:45;;;;;;;3.30;1.47;;;;;;;17.53;52.34;98907.19;5035865;28;43061;-91
2024/02/15 16:09:15;;;;;;;2.97;1.50;;;;;;;17.42;52.23;98899.28;5035290;28;42382;-90
2024/02/15 16:11:43;;;;;;;2.60;1.47;;;;;;;17.33;52.39;98902.75;5035777;28;40190;-90
2024/02/15 16:14:12;;;;;;;3.57;1.23;;;;;;;17.13;53.01;98876.94;5019076;28;41272;-92
2024/02/15 16:16:40;;;;;;;3.10;1.20;;;;;;;17.12;53.21;98902.00;5035639;28;43384;-90
2024/02/15 16:19:10;;;;;;;2.47;1.17;;;;;;;17.05;53.61;98908.91;5035632;28;42519;-90
2024/02/15 16:21:40;;;;;;;1.47;1.17;;;;;;;16.55;53.30;98852.63;5051626;28;40462;-90
2024/02/15 16:24:09;;;;;;;2.63;1.13;;;;;;;16.67;53.73;98875.66;5034890;28;41797;-90
2024/02/15 16:26:38;;;;;;;1.83;0.87;;;;;;;16.67;53.67;98893.53;5052166;28;43103;-90
2024/02/15 16:29:06;;;;;;;2.17;1.17;;;;;;;16.55;54.12;98884.72;5034543;28;41398;-90
2024/02/15 16:31:34;;;;;;;2.13;1.20;;;;;;;16.41;54.26;98877.03;5035539;28;39774;-88
2024/02/15 16:34:01;;;;;;;2.57;1.30;;;;;;;16.39;55.20;98884.31;5035091;28;41432;-91
2024/02/15 16:36:29;;;;;;;1.30;0.97;;;;;;;16.31;55.65;98893.00;5018444;28;41961;-90
2024/02/15 16:38:56;;;;;;;1.80;0.90;;;;;;;16.21;56.08;98896.56;5034373;28;42376;-89
2024/02/15 16:41:26;;;;;;;1.47;1.17;;;;;;;15.84;56.07;98856.09;5051905;28;39970;-90
2024/02/15 16:43:56;;;;;;;2.17;1.40;;;;;;;15.85;57.25;98863.97;5017851;28;42069;-89
2024/02/15 16:46:24;;;;;;;4.13;1.13;;;;;;;15.81;56.82;98873.25;5035298;28;42993;-91
2024/02/15 16:48:52;;;;;;;1.63;1.00;;;;;;;15.74;57.01;98882.72;5051580;28;42501;-89
2024/02/15 16:51:21;;;;;;;1.30;0.83;;;;;;;15.65;57.21;98872.81;5018305;28;39266;-90
2024/02/15 16:53:49;;;;;;;1.23;0.90;;;;;;;15.62;57.35;98886.41;5018230;28;40903;-89
2024/02/15 16:56:18;;;;;;;1.20;1.10;;;;;;;15.56;57.15;98889.59;5034986;28;42308;-90
2024/02/15 16:58:46;;;;;;;0.83;0.80;;;;;;;15.37;57.58;98864.38;5034907;28;43688;-91
2024/02/15 17:01:17;;;;;;;2.63;1.67;;;;;;;15.38;58.01;98884.75;5035121;28;39096;-89
2024/02/15 17:03:45;;;;;;;4.10;2.57;;;;;;;15.31;58.57;98885.38;5050566;28;42070;-90
2024/02/15 17:06:13;;;;;;;3.60;2.33;;;;;;;14.87;58.64;98833.81;5035189;28;42720;-90
2024/02/15 17:08:41;;;;;;;2.57;2.17;;;;;;;15.06;59.02;98865.19;5051503;28;43243;-88
2024/02/15 17:11:09;;;;;;;3.80;1.97;;;;;;;15.00;59.33;98863.00;5035043;28;40091;-88
2024/02/15 17:13:41;;;;;;;1.90;1.53;;;;;;;14.93;59.99;98860.00;5034706;28;41685;-89
2024/02/15 17:16:08;;;;;;;2.00;1.80;;;;;;;14.97;59.91;98872.09;5031929;28;42831;-88
2024/02/15 17:18:38;;;;;;;3.07;1.50;;;;;;;14.86;60.29;98863.25;5034798;28;41759;-88
2024/02/15 17:21:06;;;;;;;1.70;1.33;;;;;;;14.92;60.25;98878.78;5035010;28;41003;-88
2024/02/15 17:23:33;;;;;;;1.90;1.47;;;;;;;14.79;60.21;98878.06;5051197;28;41883;-89
2024/02/15 17:26:01;;;;;;;2.67;1.53;;;;;;;14.78;60.13;98889.69;5051292;28;43149;-86
2024/02/15 17:28:29;;;;;;;2.80;1.83;;;;;;;14.68;60.31;98884.25;5034616;28;41930;-88
2024/02/15 17:30:58;;;;;;;1.60;1.50;;;;;;;14.71;60.47;98898.16;5034823;28;39973;-89
2024/02/15 17:33:27;;;;;;;3.23;1.77;;;;;;;14.62;60.69;98901.53;5051640;28;42531;-89
2024/02/15 17:35:57;;;;;;;1.83;1.67;;;;;;;14.53;61.37;98893.44;5037943;28;42800;-90
2024/02/15 17:38:24;;;;;;;2.30;1.40;;;;;;;14.31;61.74;98872.91;5038087;28;42488;-88
2024/02/15 17:40:52;;;;;;;1.93;1.40;;;;;;;14.26;61.73;98891.03;5038380;28;40776;-88
2024/02/15 17:43:19;;;;;;;2.50;1.57;;;;;;;14.20;61.83;98881.72;5038080;28;41731;-87
2024/02/15 17:45:49;;;;;;;4.10;1.73;;;;;;;14.17;62.48;98886.44;5054757;28;43774;-88
2024/02/15 17:48:20;;;;;;;2.93;1.90;;;;;;;14.08;62.55;98885.34;5037668;28;42372;-88
2024/02/15 17:50:49;;;;;;;2.83;1.97;;;;;;;13.99;63.62;98868.22;5052909;28;40948;-88
2024/02/15 17:53:18;;;;;;;4.20;2.53;;;;;;;13.97;63.90;98891.44;5021033;28;40798;-89
2024/02/15 17:55:50;;;;;;;3.17;2.50;;;;;;;13.52;63.70;98831.03;5037882;28;42616;-87
2024/02/15 17:58:18;;;;;;;4.30;2.73;;;;;;;13.75;64.07;98875.41;5054793;28;41268;-88
2024/02/15 18:00:46;;;;;;;3.87;2.80;;;;;;;13.54;64.98;98853.91;5037416;28;39162;-87
2024/02/15 18:03:14;;;;;;;4.50;3.07;;;;;;;13.44;66.92;98836.94;5054087;28;42681;-88
2024/02/15 18:05:46;;;;;;;3.20;2.67;;;;;;;13.51;66.02;98867.44;5054673;28;43824;-88
2024/02/15 18:08:14;;;;;;;3.87;2.83;;;;;;;13.47;65.94;98881.97;5052979;28;42427;-88
2024/02/15 18:10:45;;;;;;;3.93;2.87;;;;;;;13.35;66.15;98872.22;5038649;28;40227;-86
2024/02/15 18:13:13;;;;;;;4.80;3.20;;;;;;;13.18;66.54;98861.97;5053881;28;42437;-88
2024/02/15 18:15:44;;;;;;;3.87;2.83;;;;;;;12.98;66.45;98833.28;5037682;28;43467;-87
2024/02/15 18:18:12;;;;;;;3.87;3.10;;;;;;;13.25;66.53;98877.34;5020838;28;41644;-88
2024/02/15 18:20:41;;;;;;;3.33;3.00;;;;;;;13.19;66.96;98872.50;5054229;28;39859;-87
2024/02/15 18:23:09;;;;;;;3.50;3.20;;;;;;;13.04;68.16;98852.28;5020650;28;41618;-88
2024/02/15 18:25:37;;;;;;;7.13;3.63;;;;;;;13.01;71.54;98839.22;5021029;28;42215;-87
2024/02/15 18:28:07;;;;;;;5.27;3.97;;;;;;;13.03;72.45;98849.75;5037140;28;41273;-87
2024/02/15 18:30:42;;;;;;;5.63;4.80;;;;;;;12.91;71.22;98843.50;5038480;28;39799;-87
2024/02/15 18:33:10;;;;;;;5.80;4.20;;;;;;;12.84;70.57;98839.59;5053631;28;42044;-88
2024/02/15 18:35:41;;;;;;;6.03;4.53;;;;;;;12.77;70.15;98831.19;5020920;28;41716;-88
2024/02/15 18:38:08;;;;;;;6.63;4.30;;;;;;;12.88;69.70;98862.31;5037754;28;41592;-86
2024/02/15 18:40:38;;;;;;;5.03;4.20;;;;;;;12.63;69.90;98819.84;5053918;28;40450;-88
2024/02/15 18:43:07;;;;;;;5.23;3.90;;;;;;;12.68;69.50;98846.97;5053887;28;42230;-87
2024/02/15 18:45:36;;;;;;;4.30;3.73;;;;;;;12.63;69.59;98857.06;5036712;28;42597;-86
2024/02/15 18:48:06;;;;;;;5.67;3.63;;;;;;;12.61;69.30;98853.69;5020350;28;41209;-88
2024/02/15 18:50:35;;;;;;;5.23;3.23;;;;;;;12.48;69.83;98857.19;5054262;28;40729;-88
2024/02/15 18:53:04;;;;;;;4.70;3.73;;;;;;;12.50;69.81;98862.38;5036871;28;41755;-90
2024/02/15 18:55:34;;;;;;;5.30;3.93;;;;;;;12.38;69.65;98858.78;5037063;28;42515;-89
2024/02/15 18:58:01;;;;;;;4.13;3.37;;;;;;;12.22;69.69;98850.19;5020906;28;41489;-88
2024/02/15 19:00:32;;;;;;;4.37;3.30;;;;;;;12.15;70.08;98846.25;5053922;28;39726;-91
2024/02/15 19:03:01;;;;;;;3.80;3.40;;;;;;;12.19;69.97;98863.69;5036557;28;40583;-88
2024/02/15 19:05:29;;;;;;;6.33;3.53;;;;;;;12.11;69.94;98866.03;5036884;28;42623;-90
2024/02/15 19:07:56;;;;;;;4.37;3.37;;;;;;;12.02;69.98;98866.63;5053416;28;42527;-89
2024/02/15 19:10:24;;;;;;;4.33;3.93;;;;;;;12.07;70.51;98883.97;5032271;28;39060;-86
2024/02/15 19:12:52;;;;;;;5.60;3.50;;;;;;;11.99;70.61;98878.28;5050029;28;41991;-89
2024/02/15 19:15:20;;;;;;;4.87;3.33;;;;;;;11.91;71.14;98871.81;5016209;28;43370;-88
2024/02/15 19:17:49;;;;;;;5.03;4.20;;;;;;;11.82;73.32;98842.31;5032689;28;41624;-88
2024/02/15 19:20:17;;;;;;;5.20;3.63;;;;;;;11.78;74.30;98848.75;5043547;28;40292;-89
2024/02/15 19:22:45;;;;;;;6.43;4.60;;;;;;;11.75;75.94;98841.00;5036048;28;41824;-88
2024/02/15 19:25:17;;;;;;;4.43;3.40;;;;;;;11.76;74.98;98839.19;5049574;28;43662;-87
2024/02/15 19:27:45;;;;;;;6.83;4.50;;;;;;;11.81;74.87;98845.91;5031118;28;42358;-88
2024/02/15 19:30:13;;;;;;;6.47;4.17;;;;;;;11.75;74.47;98843.66;5040397;28;40160;-88
2024/02/15 19:32:41;;;;;;;5.67;3.83;;;;;;;11.74;73.86;98836.66;5036091;28;42985;-88
2024/02/15 19:35:10;;;;;;;3.73;2.80;;;;;;;11.95;73.97;98860.06;5049324;28;43666;-87
2024/02/15 19:37:38;;;;;;;6.43;3.70;;;;;;;11.97;74.08;98852.84;5032966;28;42614;-88
2024/02/15 19:40:10;;;;;;;4.00;3.30;;;;;;;12.00;74.42;98857.91;5036417;28;39688;-87
2024/02/15 19:42:39;;;;;;;6.17;4.20;;;;;;;12.03;74.94;98842.63;5035207;28;40991;-87
2024/02/15 19:45:07;;;;;;;5.80;3.90;;;;;;;11.95;74.48;98834.38;5018905;28;41747;-87
2024/02/15 19:47:35;;;;;;;7.33;3.93;;;;;;;11.97;74.09;98843.06;5036113;28;42599;-88
2024/02/15 19:50:04;;;;;;;4.77;3.47;;;;;;;12.01;73.37;98849.00;5035956;28;40603;-88
2024/02/15 19:52:33;;;;;;;4.57;3.50;;;;;;;11.99;73.42;98835.00;5053668;28;42714;-86
2024/02/15 19:55:00;;;;;;;5.00;3.37;;;;;;;12.13;73.19;98858.78;5054981;28;41941;-89
2024/02/15 19:57:28;;;;;;;5.67;3.70;;;;;;;12.01;75.82;98828.63;5049516;28;42323;-87
2024/02/15 19:59:56;;;;;;;6.50;4.73;;;;;;;11.99;76.63;98821.75;5034312;28;41002;-86
2024/02/15 20:02:23;;;;;;;7.00;4.83;;;;;;;11.88;77.22;98799.41;5051287;28;42804;-88
2024/02/15 20:04:51;;;;;;;5.60;4.23;;;;;;;11.91;77.47;98810.78;5036992;28;41885;-84
2024/02/15 20:07:22;;;;;;;6.40;4.27;;;;;;;11.80;76.99;98812.38;5053711;28;42483;-86
2024/02/15 20:09:51;;;;;;;4.60;3.70;;;;;;;11.99;76.98;98829.72;5049793;28;40299;-86
2024/02/15 20:12:19;;;;;;;5.07;3.63;;;;;;;11.97;76.18;98832.47;5052379;28;42095;-85
2024/02/15 20:14:50;;;;;;;6.67;4.20;;;;;;;11.72;77.25;98790.78;5059850;28;42325;-87
2024/02/15 20:17:22;;;;;;;4.33;3.80;;;;;;;11.47;76.64;98743.03;5060637;28;42270;-86
2024/02/15 20:19:55;;;;;;;4.97;3.80;;;;;;;11.64;76.39;98784.28;5057001;28;40325;-88
2024/02/15 20:22:24;;;;;;;3.90;3.57;;;;;;;11.75;76.61;98803.88;5037464;28;40463;-86
2024/02/15 20:25:00;;;;;;;5.97;3.13;;;;;;;11.59;77.38;98771.38;5035929;28;41765;-88
2024/02/15 20:28:18;;;;;;;4.13;3.20;;;;;;;11.20;77.48;98719.22;5035206;28;40931;-87
2024/02/15 20:30:55;;;;;;;3.23;2.50;;;;;;;11.25;77.73;98732.19;5025346;28;40408;-87
2024/02/15 20:33:53;;;;;;;4.73;4.20;;;;;;;11.60;78.29;98796.09;5049303;28;41860;-87
2024/02/15 20:36:41;;;;;;;4.83;3.43;;;;;;;11.07;79.36;98710.38;5034876;28;43252;-87
2024/02/15 20:39:19;;;;;;;4.83;3.77;;;;;;;11.35;79.10;98757.09;5018868;28;41508;-87
2024/02/15 20:41:49;;;;;;;4.20;3.17;;;;;;;11.16;80.33;98723.00;5018692;28;39161;-86
2024/02/15 20:44:29;;;;;;;5.57;3.67;;;;;;;11.18;80.84;98722.91;5018842;28;41697;-87
2024/02/15 20:47:03;;;;;;;5.63;3.50;;;;;;;10.93;80.42;98705.16;5032779;28;43175;-86
2024/02/15 20:49:32;;;;;;;7.33;3.93;;;;;;;10.94;80.25;98722.75;5034956;28;43096;-86
2024/02/15 20:51:59;;;;;;;4.03;3.10;;;;;;;11.01;79.94;98740.78;5035812;28;40793;-87
2024/02/15 20:57:50;;;;;;;6.13;4.40;;;;;;;11.10;79.14;98777.31;5034895;28;42108;-86
2024/02/15 21:00:19;;;;;;;4.40;3.77;;;;;;;11.02;79.18;98771.63;5052640;28;41616;-87
2024/02/15 21:02:49;;;;;;;5.77;4.27;;;;;;;11.01;81.96;98767.28;5052925;28;39383;-86
2024/02/15 21:05:17;;;;;;;5.80;4.60;;;;;;;11.05;81.20;98789.13;5051085;28;41107;-87
2024/02/15 21:07:45;;;;;;;4.83;3.97;;;;;;;10.80;80.97;98752.78;5051711;28;43029;-86
2024/02/15 21:10:14;;;;;;;5.70;4.00;;;;;;;10.98;80.75;98794.00;5051507;28;42524;-86
2024/02/15 21:12:42;;;;;;;3.57;3.10;;;;;;;10.81;80.42;98770.38;5034938;28;39284;-86
2024/02/15 21:15:13;;;;;;;3.33;2.90;;;;;;;10.83;80.46;98772.94;5051404;28;42159;-86
2024/02/15 21:17:41;;;;;;;6.03;3.23;;;;;;;10.93;81.38;98790.78;5035884;28;42131;-87
2024/02/15 21:20:12;;;;;;;5.50;3.30;;;;;;;10.97;81.00;98807.34;5051458;28;42995;-86
2024/02/15 21:22:39;;;;;;;3.97;2.53;;;;;;;10.84;81.39;98785.25;5051645;28;39627;-86
2024/02/15 21:25:07;;;;;;;4.13;2.63;;;;;;;10.86;82.72;98778.91;5051243;28;42346;-86
